Time;durP1;ratioP1;P1;durP2;ratioP2;P2;SDS_P1;SDS_P2;PMS_P1;PMS_P2;Temp;Humidity;BMP_temperature;BMP_pressure;BME280_temperature;BME280_humidity;BME280_pressure;Samples;Min_cycle;Max_cycle;Signal;HPM_P1;HPM_P2
2022/05/13 00:02:10;;;;;;;10.68;6.88;;;10.60;99.90;;;;;;5030617;28;20041;-69
2022/05/13 00:04:38;;;;;;;9.13;6.53;;;10.60;99.90;;;;;;5032287;28;20102;-69
2022/05/13 00:07:04;;;;;;;11.75;7.65;;;10.50;99.90;;;;;;5050100;28;20147;-69
2022/05/13 00:12:15;;;;;;;16.55;7.72;;;10.60;99.90;;;;;;5037887;28;20064;-69
2022/05/13 00:14:41;;;;;;;11.73;7.90;;;10.50;99.90;;;;;;5031156;28;20075;-69
2022/05/13 00:17:07;;;;;;;10.52;7.00;;;10.50;99.90;;;;;;5050085;28;20055;-69
2022/05/13 00:19:33;;;;;;;13.50;7.00;;;10.50;99.90;;;;;;5031756;28;20052;-69
2022/05/13 00:21:59;;;;;;;11.27;7.55;;;10.50;99.90;;;;;;5031074;28;20099;-70
2022/05/13 00:24:25;;;;;;;13.98;6.97;;;10.40;99.90;;;;;;5015248;28;20048;-69
2022/05/13 00:26:51;;;;;;;12.90;7.03;;;10.40;99.90;;;;;;5029926;28;20045;-69
2022/05/13 00:29:17;;;;;;;10.02;7.07;;;10.40;99.90;;;;;;5031691;28;20219;-70
2022/05/13 00:31:43;;;;;;;8.38;6.40;;;10.40;99.90;;;;;;5031960;28;20620;-69
2022/05/13 00:34:10;;;;;;;12.20;7.13;;;10.40;99.90;;;;;;5032475;28;20122;-69
2022/05/13 00:36:36;;;;;;;12.52;7.82;;;10.40;99.90;;;;;;5033405;28;20060;-70
2022/05/13 00:39:04;;;;;;;13.48;7.40;;;10.40;99.90;;;;;;5008988;28;20079;-69
2022/05/13 00:41:30;;;;;;;11.70;7.35;;;10.30;99.90;;;;;;5037142;28;20058;-69
2022/05/13 00:43:56;;;;;;;10.35;7.10;;;10.30;99.90;;;;;;5027202;28;20046;-69
2022/05/13 00:46:23;;;;;;;17.63;8.48;;;10.30;99.90;;;;;;5036248;28;20057;-69
2022/05/13 00:48:50;;;;;;;9.68;7.60;;;10.30;99.90;;;;;;5032066;28;20079;-69
2022/05/13 00:51:27;;;;;;;13.77;8.60;;;10.20;99.90;;;;;;5048921;28;20053;-70
2022/05/13 00:53:55;;;;;;;12.90;8.48;;;10.30;99.90;;;;;;5031349;28;20060;-69
2022/05/13 00:56:21;;;;;;;8.13;7.32;;;10.30;99.90;;;;;;5016725;28;20041;-69
2022/05/13 00:58:51;;;;;;;13.60;8.25;;;10.30;99.90;;;;;;5048599;28;20426;-69
2022/05/13 01:01:17;;;;;;;10.88;8.73;;;10.30;99.90;;;;;;5031550;28;20048;-69
2022/05/13 01:03:44;;;;;;;18.60;9.32;;;10.40;99.90;;;;;;5047250;28;20037;-69
2022/05/13 01:06:14;;;;;;;13.25;9.13;;;10.40;99.90;;;;;;5031576;28;20067;-69
2022/05/13 01:08:41;;;;;;;12.75;8.45;;;10.40;99.90;;;;;;5031185;28;20056;-69
2022/05/13 01:11:12;;;;;;;16.88;9.38;;;10.40;99.90;;;;;;5045073;28;20045;-69
2022/05/13 01:13:38;;;;;;;13.23;8.88;;;10.50;99.90;;;;;;5047534;28;20236;-69
2022/05/13 01:16:04;;;;;;;20.88;9.27;;;10.60;99.90;;;;;;5030689;28;20060;-70
2022/05/13 01:18:39;;;;;;;21.73;8.68;;;10.60;99.90;;;;;;5028997;28;20049;-69
2022/05/13 01:21:07;;;;;;;16.85;9.63;;;10.60;99.90;;;;;;5029798;28;20052;-69
2022/05/13 01:23:41;;;;;;;15.50;10.27;;;10.70;99.90;;;;;;5029823;28;20041;-69
2022/05/13 01:26:16;;;;;;;11.00;8.10;;;10.70;99.90;;;;;;5030434;28;21120;-69
2022/05/13 01:28:47;;;;;;;11.73;8.25;;;10.70;99.90;;;;;;5048197;28;20057;-69
2022/05/13 01:31:20;;;;;;;13.48;8.52;;;10.80;99.90;;;;;;5029723;28;20115;-69
2022/05/13 01:33:46;;;;;;;12.93;8.95;;;10.80;99.90;;;;;;5048347;28;20051;-69
2022/05/13 01:36:15;;;;;;;18.88;8.80;;;10.80;99.90;;;;;;5048172;28;20786;-70
2022/05/13 01:38:42;;;;;;;11.30;8.00;;;10.80;99.90;;;;;;5030829;28;20441;-69
2022/05/13 01:41:11;;;;;;;17.33;8.52;;;10.90;99.90;;;;;;5023853;28;20056;-69
2022/05/13 01:43:38;;;;;;;18.23;8.43;;;10.90;99.90;;;;;;5039563;28;20445;-69
2022/05/13 01:46:05;;;;;;;21.92;8.15;;;10.90;99.90;;;;;;5030822;28;20041;-69
2022/05/13 01:48:31;;;;;;;18.25;8.55;;;10.90;99.90;;;;;;5030686;28;20127;-69
2022/05/13 01:50:57;;;;;;;11.60;7.20;;;11.00;99.90;;;;;;5047152;28;20071;-69
2022/05/13 01:53:23;;;;;;;13.05;8.43;;;11.00;99.90;;;;;;5013212;28;20116;-69
2022/05/13 01:55:49;;;;;;;11.75;8.02;;;11.00;99.90;;;;;;5033488;28;20037;-69
2022/05/13 01:58:19;;;;;;;12.05;7.95;;;11.10;99.90;;;;;;5012016;28;20053;-70
2022/05/13 02:00:47;;;;;;;8.68;7.78;;;11.10;99.90;;;;;;5029900;28;20044;-69
2022/05/13 02:05:59;;;;;;;11.70;7.50;;;11.10;99.90;;;;;;5030285;28;20064;-69
2022/05/13 02:08:25;;;;;;;12.13;8.20;;;11.10;99.90;;;;;;5029620;28;20071;-69
2022/05/13 02:10:51;;;;;;;13.40;7.10;;;11.10;99.90;;;;;;5029540;28;20045;-69
2022/05/13 02:13:17;;;;;;;41.50;9.75;;;11.10;99.90;;;;;;5030115;28;20057;-69
2022/05/13 02:15:44;;;;;;;19.23;9.63;;;11.10;99.90;;;;;;5026308;28;20077;-69
2022/05/13 02:18:10;;;;;;;8.68;7.78;;;11.10;99.90;;;;;;5028848;28;20049;-69
2022/05/13 02:20:37;;;;;;;14.18;7.88;;;11.10;99.90;;;;;;5028815;28;20751;-70
2022/05/13 02:23:03;;;;;;;16.52;8.32;;;11.20;99.90;;;;;;5029905;28;20049;-69
2022/05/13 02:25:32;;;;;;;14.60;7.70;;;11.20;99.90;;;;;;5027802;28;20406;-69
2022/05/13 02:28:00;;;;;;;8.27;6.93;;;11.20;99.90;;;;;;5030479;28;20128;-69
2022/05/13 02:30:27;;;;;;;18.23;8.80;;;11.10;99.90;;;;;;5029912;28;20556;-69
2022/05/13 02:32:53;;;;;;;19.00;8.48;;;11.20;99.90;;;;;;5046871;28;20059;-69
2022/05/13 02:35:19;;;;;;;10.90;7.20;;;11.10;99.90;;;;;;5042546;28;20045;-69
2022/05/13 02:37:45;;;;;;;14.05;8.25;;;11.20;99.90;;;;;;5028470;28;20402;-69
2022/05/13 02:40:12;;;;;;;20.67;8.98;;;11.20;99.90;;;;;;5024433;28;20045;-69
2022/05/13 02:42:37;;;;;;;12.20;7.63;;;11.20;99.90;;;;;;5040874;28;20456;-69
2022/05/13 02:45:05;;;;;;;14.05;7.72;;;11.20;99.90;;;;;;5029070;28;20075;-69
2022/05/13 02:47:30;;;;;;;15.15;8.90;;;11.20;99.90;;;;;;5037885;28;20102;-69
2022/05/13 02:52:40;;;;;;;12.50;8.20;;;11.20;99.90;;;;;;5027366;28;20044;-69
2022/05/13 02:55:06;;;;;;;18.90;8.43;;;11.20;99.90;;;;;;5046341;28;20486;-69
2022/05/13 02:57:33;;;;;;;17.48;7.40;;;11.20;99.90;;;;;;5029518;28;20568;-69
2022/05/13 02:59:59;;;;;;;18.63;7.95;;;11.20;99.90;;;;;;5047003;28;20204;-69
2022/05/13 03:02:25;;;;;;;14.25;7.95;;;11.20;99.90;;;;;;5029512;28;20132;-69
2022/05/13 03:04:51;;;;;;;14.70;7.97;;;11.10;99.90;;;;;;5041494;28;20128;-69
2022/05/13 03:07:17;;;;;;;13.35;7.13;;;11.10;99.90;;;;;;5029861;28;20049;-69
2022/05/13 03:09:43;;;;;;;16.92;7.40;;;11.10;99.90;;;;;;5029139;28;20057;-69
2022/05/13 03:12:11;;;;;;;16.30;7.38;;;11.10;99.90;;;;;;5047574;28;20056;-69
2022/05/13 03:14:37;;;;;;;19.90;8.85;;;11.10;99.90;;;;;;5036471;28;20549;-69
2022/05/13 03:17:06;;;;;;;13.20;8.35;;;11.10;99.90;;;;;;5028648;28;20067;-70
2022/05/13 03:19:34;;;;;;;12.98;8.43;;;11.10;99.90;;;;;;5046582;28;20055;-70
2022/05/13 03:22:03;;;;;;;20.08;8.30;;;11.10;99.90;;;;;;5029055;28;20143;-70
2022/05/13 03:24:29;;;;;;;16.75;7.15;;;11.10;99.90;;;;;;5028553;28;20048;-69
2022/05/13 03:26:54;;;;;;;14.75;8.73;;;11.10;99.90;;;;;;5028862;28;20445;-69
2022/05/13 03:29:20;;;;;;;16.00;8.18;;;11.10;99.90;;;;;;5029674;28;20052;-69
2022/05/13 03:31:47;;;;;;;13.70;7.65;;;11.10;99.90;;;;;;5028688;28;20049;-69
2022/05/13 03:34:13;;;;;;;20.10;9.02;;;11.10;99.90;;;;;;5029166;28;20053;-69
2022/05/13 03:36:39;;;;;;;11.48;7.55;;;11.10;99.90;;;;;;5031288;28;20089;-69
2022/05/13 03:39:05;;;;;;;20.48;8.52;;;11.10;99.90;;;;;;5029805;28;20052;-69
2022/05/13 03:41:31;;;;;;;18.65;7.45;;;11.10;99.90;;;;;;5040789;28;20041;-69
2022/05/13 03:43:56;;;;;;;17.42;7.45;;;11.10;99.90;;;;;;5029779;28;20057;-69
2022/05/13 03:46:22;;;;;;;11.73;8.30;;;11.10;99.90;;;;;;5028925;28;20045;-69
2022/05/13 03:48:48;;;;;;;28.52;9.20;;;11.10;99.90;;;;;;5028833;28;20085;-69
2022/05/13 03:51:14;;;;;;;21.70;10.57;;;11.10;99.90;;;;;;5028588;28;20053;-69
2022/05/13 03:53:40;;;;;;;15.40;8.27;;;11.10;99.90;;;;;;5029392;28;20050;-69
2022/05/13 03:56:06;;;;;;;16.00;8.15;;;11.10;99.90;;;;;;5029220;28;20052;-69
2022/05/13 03:58:31;;;;;;;27.92;9.88;;;11.10;99.90;;;;;;5028989;28;20080;-69
2022/05/13 04:00:57;;;;;;;16.67;8.10;;;11.10;99.90;;;;;;5030052;28;20115;-69
2022/05/13 04:03:23;;;;;;;16.10;8.73;;;11.10;99.90;;;;;;5029686;28;20042;-69
2022/05/13 04:11:19;;;;;;;14.60;7.25;;;11.10;99.90;;;;;;5026435;28;20064;-69
2022/05/13 04:16:29;;;;;;;16.50;8.25;;;11.10;99.90;;;;;;5027051;28;20052;-69
2022/05/13 04:18:55;;;;;;;14.50;7.97;;;11.10;99.90;;;;;;5030265;28;20049;-69
2022/05/13 04:21:25;;;;;;;16.00;8.38;;;11.10;99.90;;;;;;5029390;28;20088;-69
2022/05/13 04:23:54;;;;;;;24.23;8.50;;;11.10;99.90;;;;;;5012391;28;20132;-69
2022/05/13 04:26:19;;;;;;;;;;;11.10;99.90;;;;;;5016748;28;20041;-69
2022/05/13 04:28:48;;;;;;;23.08;8.05;;;11.10;99.90;;;;;;5029128;28;19983;-69
2022/05/13 04:31:17;;;;;;;17.20;8.05;;;11.10;99.90;;;;;;5029920;28;20045;-69
2022/05/13 04:33:43;;;;;;;16.10;8.23;;;11.10;99.90;;;;;;5029244;28;20058;-69
2022/05/13 04:36:09;;;;;;;14.80;8.73;;;11.10;99.90;;;;;;5029302;28;20413;-69
2022/05/13 04:38:35;;;;;;;16.08;7.03;;;11.20;99.90;;;;;;5028366;28;20056;-69
2022/05/13 04:43:47;;;;;;;19.42;8.25;;;11.20;99.90;;;;;;5028525;28;20477;-69
2022/05/13 04:46:14;;;;;;;23.65;8.48;;;11.20;99.90;;;;;;5026634;28;20073;-69
2022/05/13 04:48:39;;;;;;;12.80;8.30;;;11.20;99.90;;;;;;5029051;28;20041;-69
2022/05/13 04:51:05;;;;;;;21.40;8.90;;;11.20;99.90;;;;;;5028048;28;20063;-69
2022/05/13 04:53:35;;;;;;;20.13;8.27;;;11.30;99.90;;;;;;5029859;28;20120;-69
2022/05/13 04:56:06;;;;;;;16.45;7.75;;;11.30;99.90;;;;;;5028187;28;20084;-69
2022/05/13 04:58:32;;;;;;;24.77;8.52;;;11.30;99.90;;;;;;5027902;28;20077;-69
2022/05/13 05:00:59;;;;;;;21.88;8.68;;;11.30;99.90;;;;;;5028719;28;20048;-69
2022/05/13 05:03:27;;;;;;;21.17;8.05;;;11.30;99.90;;;;;;5028626;28;20869;-69
2022/05/13 05:05:53;;;;;;;;;;;11.30;99.90;;;;;;5024567;28;20038;-69
2022/05/13 05:08:19;;;;;;;16.38;7.95;;;11.40;99.90;;;;;;5025122;28;19921;-69
2022/05/13 05:10:46;;;;;;;22.63;8.75;;;11.40;99.90;;;;;;5025225;28;20053;-69
2022/05/13 05:13:35;;;;;;;15.23;8.05;;;11.40;99.90;;;;;;5025302;28;20052;-69
2022/05/13 05:16:02;;;;;;;26.27;7.32;;;11.40;99.90;;;;;;5025361;28;20053;-69
2022/05/13 05:18:29;;;;;;;24.15;8.95;;;11.40;99.90;;;;;;5025515;28;20049;-69
2022/05/13 05:20:54;;;;;;;23.40;8.90;;;11.40;99.90;;;;;;5009400;28;20387;-69
2022/05/13 05:23:25;;;;;;;19.02;7.80;;;11.40;99.90;;;;;;5024915;28;20122;-69
2022/05/13 05:25:51;;;;;;;21.38;9.57;;;11.40;99.90;;;;;;5029437;28;20049;-69
2022/05/13 05:28:16;;;;;;;22.77;8.55;;;11.50;99.90;;;;;;5028458;28;20056;-69
2022/05/13 05:30:44;;;;;;;19.02;8.80;;;11.50;99.90;;;;;;5028983;28;20315;-69
2022/05/13 05:33:09;;;;;;;20.25;8.48;;;11.50;99.90;;;;;;5027555;28;20049;-69
2022/05/13 05:35:35;;;;;;;18.25;8.65;;;11.50;99.90;;;;;;5029144;28;20073;-69
2022/05/13 05:38:02;;;;;;;23.90;8.57;;;11.60;99.90;;;;;;5028155;28;20102;-69
2022/05/13 05:40:29;;;;;;;16.10;8.13;;;11.60;99.90;;;;;;5003341;28;20044;-68
2022/05/13 05:42:55;;;;;;;15.20;7.53;;;11.60;99.90;;;;;;5008961;28;20128;-69
2022/05/13 05:45:22;;;;;;;24.92;9.95;;;11.70;99.90;;;;;;5009760;28;20196;-68
2022/05/13 05:47:50;;;;;;;20.52;9.02;;;11.80;99.90;;;;;;5008353;28;20478;-68
2022/05/13 05:50:18;;;;;;;20.50;8.40;;;11.90;99.90;;;;;;5015073;28;20710;-68
2022/05/13 05:52:44;;;;;;;22.02;8.18;;;11.90;99.90;;;;;;5033025;28;20346;-69
2022/05/13 05:58:02;;;;;;;20.42;7.82;;;12.10;99.90;;;;;;5015043;28;20069;-69
2022/05/13 06:00:30;;;;;;;20.00;7.72;;;12.10;99.90;;;;;;5028273;28;20111;-69
2022/05/13 06:02:56;;;;;;;;;;;12.20;99.90;;;;;;5027921;28;20445;-68
2022/05/13 06:05:23;;;;;;;16.98;7.35;;;12.20;99.90;;;;;;5027377;28;19979;-68
2022/05/13 06:07:50;;;;;;;27.08;8.50;;;12.20;99.90;;;;;;5009918;28;20050;-68
2022/05/13 06:10:16;;;;;;;17.52;9.10;;;12.40;99.90;;;;;;5019881;28;20046;-68
2022/05/13 06:12:43;;;;;;;23.15;9.50;;;12.50;99.90;;;;;;5012463;28;20042;-68
2022/05/13 06:15:10;;;;;;;26.40;9.15;;;12.70;99.90;;;;;;5022226;28;20041;-68
2022/05/13 06:17:58;;;;;;;17.10;7.90;;;12.80;99.90;;;;;;5020283;28;20128;-69
2022/05/13 06:20:27;;;;;;;32.25;8.93;;;12.90;99.90;;;;;;5021829;28;20068;-69
2022/05/13 06:22:53;;;;;;;22.08;8.90;;;13.00;99.90;;;;;;5028518;28;20548;-68
2022/05/13 06:25:20;;;;;;;18.73;7.95;;;13.10;99.90;;;;;;5020102;28;20123;-68
2022/05/13 06:27:47;;;;;;;18.27;8.82;;;13.20;99.90;;;;;;5026743;28;20170;-68
2022/05/13 06:30:22;;;;;;;13.88;7.40;;;13.30;99.90;;;;;;5027371;28;20045;-68
2022/05/13 06:32:47;;;;;;;26.65;8.80;;;13.40;99.90;;;;;;5027200;28;20045;-69
2022/05/13 06:35:13;;;;;;;22.75;9.32;;;13.50;99.90;;;;;;5029013;28;20045;-71
2022/05/13 06:37:39;;;;;;;17.80;7.55;;;13.50;99.90;;;;;;5028526;28;20128;-71
2022/05/13 06:40:06;;;;;;;14.68;7.82;;;13.60;99.90;;;;;;5029065;28;20147;-72
2022/05/13 06:42:32;;;;;;;26.65;9.73;;;13.60;99.90;;;;;;5026269;28;20041;-71
2022/05/13 06:44:58;;;;;;;15.40;7.13;;;13.70;99.90;;;;;;5030358;28;20432;-69
2022/05/13 06:47:23;;;;;;;13.80;6.72;;;13.80;99.90;;;;;;5046421;28;20041;-72
2022/05/13 06:49:49;;;;;;;21.67;8.10;;;13.90;99.90;;;;;;5047590;28;20515;-70
2022/05/13 06:52:15;;;;;;;26.48;8.55;;;13.90;99.90;;;;;;5029192;28;20504;-69
2022/05/13 06:54:41;;;;;;;18.30;7.28;;;14.10;99.90;;;;;;5029856;28;20045;-69
2022/05/13 06:57:08;;;;;;;22.38;8.32;;;14.20;99.90;;;;;;5029389;28;20048;-69
2022/05/13 06:59:34;;;;;;;17.85;7.32;;;14.30;99.90;;;;;;5047004;28;20097;-69
2022/05/13 07:02:00;;;;;;;21.92;7.13;;;14.40;99.90;;;;;;5027310;28;20425;-69
2022/05/13 07:04:25;;;;;;;14.88;6.20;;;14.50;99.90;;;;;;5022084;28;20041;-68
2022/05/13 07:06:51;;;;;;;17.88;7.22;;;14.60;99.90;;;;;;5029664;28;20066;-69
2022/05/13 07:09:17;;;;;;;15.95;6.65;;;14.60;99.90;;;;;;5028321;28;20076;-69
2022/05/13 07:11:44;;;;;;;22.33;7.60;;;14.60;99.90;;;;;;5042058;28;20081;-69
2022/05/13 07:14:10;;;;;;;26.60;7.07;;;14.60;99.90;;;;;;5031624;28;20166;-69
2022/05/13 07:16:36;;;;;;;11.18;6.30;;;14.60;99.90;;;;;;5023551;28;20702;-68
2022/05/13 07:19:02;;;;;;;23.80;7.75;;;14.60;99.90;;;;;;5047756;28;20119;-69
2022/05/13 07:21:27;;;;;;;21.27;7.68;;;14.60;99.90;;;;;;5047096;28;20068;-68
2022/05/13 07:23:53;;;;;;;17.67;6.30;;;14.60;99.90;;;;;;5045571;28;20127;-69
2022/05/13 07:26:19;;;;;;;19.88;5.88;;;14.60;99.90;;;;;;5046352;28;20506;-69
2022/05/13 07:28:44;;;;;;;10.98;4.95;;;14.60;99.90;;;;;;5047131;28;20156;-68
2022/05/13 07:31:10;;;;;;;14.75;4.93;;;14.50;99.90;;;;;;5023440;28;20517;-69
2022/05/13 07:33:36;;;;;;;15.32;5.03;;;14.50;99.90;;;;;;5024587;28;20061;-69
2022/05/13 07:36:03;;;;;;;11.90;4.65;;;14.50;99.90;;;;;;5025467;28;20108;-69
2022/05/13 07:38:30;;;;;;;6.57;4.22;;;14.50;99.90;;;;;;5024166;28;20046;-68
2022/05/13 07:41:16;;;;;;;7.75;4.00;;;14.50;99.90;;;;;;5026539;28;20053;-68
2022/05/13 07:43:46;;;;;;;10.25;4.82;;;14.50;99.90;;;;;;5021061;28;20124;-69
2022/05/13 07:46:12;;;;;;;14.75;4.57;;;14.50;99.90;;;;;;5025467;28;20545;-68
2022/05/13 07:48:40;;;;;;;9.02;4.22;;;14.70;99.90;;;;;;5026959;28;20053;-69
2022/05/13 07:51:07;;;;;;;21.55;5.50;;;14.90;99.90;;;;;;5020316;28;20069;-69
2022/05/13 07:53:33;;;;;;;13.73;4.75;;;15.10;99.90;;;;;;5026497;28;20079;-69
2022/05/13 07:55:59;;;;;;;9.80;4.15;;;15.50;99.90;;;;;;5023875;28;20057;-69
2022/05/13 07:58:25;;;;;;;9.73;4.28;;;15.90;99.90;;;;;;5018445;28;20042;-69
2022/05/13 08:00:50;;;;;;;13.07;4.00;;;16.20;99.90;;;;;;5025904;28;20053;-68
2022/05/13 08:03:17;;;;;;;8.38;3.78;;;16.50;99.90;;;;;;5026615;28;20073;-69
2022/05/13 08:05:53;;;;;;;8.82;4.38;;;16.90;99.90;;;;;;5027128;28;20080;-68
2022/05/13 08:08:30;;;;;;;6.35;3.65;;;17.20;99.90;;;;;;5027197;28;20053;-68
2022/05/13 08:10:58;;;;;;;10.18;3.78;;;17.60;99.90;;;;;;5022550;28;20053;-71
2022/05/13 08:13:26;;;;;;;10.07;3.28;;;17.80;99.90;;;;;;5022459;28;20057;-71
2022/05/13 08:15:52;;;;;;;7.85;3.13;;;17.80;99.90;;;;;;5024461;28;20049;-68
2022/05/13 08:18:20;;;;;;;6.57;2.92;;;17.60;99.90;;;;;;5023809;28;20111;-69
2022/05/13 08:20:46;;;;;;;;;;;17.30;99.90;;;;;;5030391;28;20402;-68
2022/05/13 08:23:13;;;;;;;8.60;4.75;;;17.00;96.90;;;;;;5027126;28;19921;-68
2022/05/13 08:25:39;;;;;;;15.32;4.20;;;16.80;99.90;;;;;;5026193;28;20574;-69
2022/05/13 08:28:08;;;;;;;5.43;3.38;;;17.10;99.90;;;;;;5028679;28;20150;-69
2022/05/13 08:30:35;;;;;;;8.52;3.35;;;17.00;99.90;;;;;;5028381;28;20077;-69
2022/05/13 08:33:08;;;;;;;7.85;3.53;;;16.80;99.90;;;;;;5029552;28;20406;-69
2022/05/13 08:35:35;;;;;;;9.55;3.47;;;16.90;99.90;;;;;;5032269;28;20056;-68
2022/05/13 08:38:01;;;;;;;5.60;3.30;;;16.80;99.90;;;;;;5032141;28;20056;-69
2022/05/13 08:40:47;;;;;;;7.47;4.28;;;16.70;99.90;;;;;;5050227;28;20076;-68
2022/05/13 08:43:16;;;;;;;9.52;3.38;;;16.80;99.90;;;;;;5046018;28;20249;-69
2022/05/13 08:45:50;;;;;;;11.80;3.42;;;16.80;99.90;;;;;;5031825;28;20051;-69
2022/05/13 08:48:20;;;;;;;7.53;3.15;;;16.60;99.90;;;;;;5030689;28;20049;-68
2022/05/13 08:51:20;;;;;;;5.72;3.72;;;16.50;99.90;;;;;;5032385;28;20060;-68
2022/05/13 08:54:07;;;;;;;8.25;4.13;;;16.40;99.90;;;;;;5026635;28;20401;-68
2022/05/13 08:56:34;;;;;;;10.32;5.05;;;16.60;99.90;;;;;;5030567;28;20049;-68
2022/05/13 08:59:09;;;;;;;14.53;4.13;;;16.80;99.90;;;;;;5050076;28;20044;-68
2022/05/13 09:01:41;;;;;;;10.20;4.25;;;16.90;99.90;;;;;;5049207;28;20110;-68
2022/05/13 09:04:20;;;;;;;8.27;3.95;;;17.20;99.90;;;;;;5027721;28;20045;-68
2022/05/13 09:06:53;;;;;;;6.90;3.22;;;17.40;99.90;;;;;;5031557;28;20045;-68
2022/05/13 09:09:20;;;;;;;7.95;3.40;;;17.70;99.90;;;;;;5045894;28;20041;-69
2022/05/13 09:12:08;;;;;;;10.23;3.15;;;18.00;97.70;;;;;;5030528;28;20490;-69
2022/05/13 09:14:58;;;;;;;13.52;3.80;;;18.00;92.00;;;;;;5031062;28;20091;-69
2022/05/13 09:17:32;;;;;;;4.30;3.20;;;17.80;92.70;;;;;;5027242;28;20494;-68
2022/05/13 09:20:00;;;;;;;11.88;4.13;;;17.50;91.30;;;;;;5048264;28;20052;-69
2022/05/13 09:22:36;;;;;;;15.00;4.18;;;17.30;95.10;;;;;;5044521;28;20147;-68
2022/05/13 09:25:03;;;;;;;12.27;4.13;;;17.10;92.90;;;;;;5027696;28;20106;-69
2022/05/13 09:28:00;;;;;;;9.15;3.30;;;17.20;97.00;;;;;;5030874;28;20052;-69
2022/05/13 09:30:35;;;;;;;7.85;3.35;;;17.30;93.40;;;;;;5022321;28;20040;-69
2022/05/13 09:33:37;;;;;;;7.20;3.70;;;17.50;87.20;;;;;;5049168;28;20563;-69
2022/05/13 09:36:08;;;;;;;4.65;3.67;;;17.50;90.10;;;;;;5037594;28;20060;-69
2022/05/13 09:38:55;;;;;;;7.15;3.13;;;17.50;92.00;;;;;;5028634;28;20045;-69
2022/05/13 09:41:27;;;;;;;5.30;3.40;;;17.40;90.20;;;;;;5044849;28;20056;-69
2022/05/13 09:44:05;;;;;;;10.68;3.85;;;17.50;90.40;;;;;;5046351;28;20053;-69
2022/05/13 09:46:35;;;;;;;9.70;3.33;;;17.30;92.10;;;;;;5046745;28;20048;-68
2022/05/13 09:49:33;;;;;;;3.88;3.28;;;17.20;90.40;;;;;;5044090;28;20482;-68
2022/05/13 09:52:21;;;;;;;7.00;3.30;;;17.10;90.50;;;;;;5045939;28;20052;-69
2022/05/13 09:54:47;;;;;;;;;;;17.00;93.10;;;;;;5017506;28;20572;-66
2022/05/13 09:57:20;;;;;;;8.48;3.58;;;16.80;92.40;;;;;;5033062;28;19924;-67
2022/05/13 09:59:53;;;;;;;10.68;4.15;;;16.80;96.50;;;;;;5030151;28;20417;-67
2022/05/13 10:02:31;;;;;;;13.45;3.85;;;16.80;95.20;;;;;;5030337;28;20413;-67
2022/05/13 10:05:15;;;;;;;7.85;2.95;;;16.80;96.40;;;;;;5029935;28;20048;-68
2022/05/13 10:07:51;;;;;;;5.20;2.83;;;16.80;94.80;;;;;;5046799;28;20061;-67
2022/05/13 10:14:11;;;;;;;9.57;3.42;;;16.90;94.40;;;;;;5029963;28;20060;-66
2022/05/13 10:16:40;;;;;;;12.20;3.67;;;16.80;93.60;;;;;;5013783;28;20563;-68
2022/05/13 10:19:32;;;;;;;9.05;4.28;;;16.80;95.50;;;;;;5046050;28;20091;-67
2022/05/13 10:22:23;;;;;;;7.70;3.78;;;16.80;95.90;;;;;;5040522;28;20183;-67
2022/05/13 10:24:57;;;;;;;4.32;2.72;;;17.00;95.30;;;;;;5027293;28;20075;-68
2022/05/13 10:27:41;;;;;;;4.93;2.83;;;17.30;94.50;;;;;;5023749;28;20048;-68
2022/05/13 10:30:29;;;;;;;6.00;2.80;;;17.70;92.30;;;;;;5045126;28;20049;-67
2022/05/13 10:33:03;;;;;;;8.15;2.80;;;17.90;86.60;;;;;;5023386;28;20707;-68
2022/05/13 10:35:59;;;;;;;7.47;3.38;;;18.10;80.90;;;;;;5028968;28;20045;-68
2022/05/13 10:38:36;;;;;;;11.63;3.28;;;18.30;80.30;;;;;;5020642;28;20061;-68
2022/05/13 10:41:35;;;;;;;7.55;3.05;;;18.50;79.90;;;;;;5045061;28;20723;-68
2022/05/13 10:44:23;;;;;;;8.13;3.22;;;18.60;78.00;;;;;;5027402;28;20045;-68
2022/05/13 10:47:02;;;;;;;5.85;2.72;;;18.50;75.30;;;;;;5027480;28;20056;-68
2022/05/13 10:49:34;;;;;;;4.45;2.42;;;18.20;74.20;;;;;;5047581;28;20053;-68
2022/05/13 10:52:21;;;;;;;4.40;2.63;;;18.20;74.80;;;;;;5028060;28;20045;-68
2022/05/13 10:55:03;;;;;;;4.85;2.50;;;17.90;77.70;;;;;;5045751;28;20033;-67
2022/05/13 10:57:50;;;;;;;7.35;3.13;;;17.80;77.20;;;;;;5026580;28;20045;-67
2022/05/13 11:00:33;;;;;;;10.15;3.00;;;17.70;81.40;;;;;;5047135;28;20097;-67
2022/05/13 11:03:32;;;;;;;5.22;2.60;;;17.90;78.20;;;;;;5047300;28;20481;-67
2022/05/13 11:06:22;;;;;;;6.53;3.45;;;18.20;73.70;;;;;;5042080;28;20053;-68
2022/05/13 11:09:25;;;;;;;7.22;3.35;;;18.30;75.20;;;;;;5029421;28;20544;-68
2022/05/13 11:11:57;;;;;;;5.95;3.92;;;18.50;74.00;;;;;;5043546;28;20076;-67
2022/05/13 11:14:48;;;;;;;11.15;4.03;;;18.50;74.50;;;;;;5029653;28;20052;-67
2022/05/13 11:17:14;;;;;;;14.18;3.65;;;18.40;73.90;;;;;;5046911;28;20052;-67
2022/05/13 11:19:47;;;;;;;8.30;4.22;;;18.20;75.60;;;;;;5047050;28;20072;-67
2022/05/13 11:22:18;;;;;;;8.07;3.58;;;18.10;76.50;;;;;;5028632;28;20047;-67
2022/05/13 11:28:02;;;;;;;13.70;4.05;;;18.40;78.90;;;;;;5028911;28;20191;-67
2022/05/13 11:30:45;;;;;;;16.75;4.45;;;18.60;77.00;;;;;;5029150;28;20079;-68
2022/05/13 11:33:35;;;;;;;6.25;3.45;;;18.40;77.00;;;;;;5017328;28;20064;-67
2022/05/13 11:36:03;;;;;;;16.00;3.35;;;18.40;74.40;;;;;;5024554;28;20050;-69
2022/05/13 11:38:51;;;;;;;6.35;3.00;;;18.30;74.40;;;;;;5022967;28;20778;-69
2022/05/13 11:41:22;;;;;;;6.28;2.97;;;18.20;74.40;;;;;;5024620;28;20063;-68
2022/05/13 11:44:04;;;;;;;6.30;3.13;;;18.20;74.60;;;;;;5028031;28;20042;-69
2022/05/13 11:46:59;;;;;;;12.40;3.13;;;18.30;73.40;;;;;;5023336;28;20045;-69
2022/05/13 11:49:26;;;;;;;13.93;3.75;;;18.20;72.80;;;;;;5013933;28;20111;-69
2022/05/13 11:51:54;;;;;;;17.67;3.80;;;18.10;75.40;;;;;;5023770;28;20518;-70
2022/05/13 11:54:23;;;;;;;;;;;18.20;76.40;;;;;;5009092;28;20246;-69
2022/05/13 11:57:09;;;;;;;10.55;2.70;;;18.30;73.30;;;;;;5025369;28;19921;-68
2022/05/13 11:59:38;;;;;;;9.35;3.88;;;18.40;73.30;;;;;;5030724;28;20136;-68
2022/05/13 12:02:07;;;;;;;8.00;3.25;;;18.40;72.00;;;;;;5030431;28;20054;-68
2022/05/13 12:04:36;;;;;;;8.25;3.55;;;18.40;73.90;;;;;;5029140;28;20108;-68
2022/05/13 12:07:25;;;;;;;5.00;3.83;;;18.60;72.70;;;;;;5029822;28;20635;-68
2022/05/13 12:09:53;;;;;;;7.30;3.80;;;18.60;71.50;;;;;;5025581;28;20582;-68
2022/05/13 12:12:52;;;;;;;9.88;4.25;;;18.60;73.30;;;;;;5030755;28;20047;-68
2022/05/13 12:15:21;;;;;;;7.97;3.80;;;18.60;72.60;;;;;;5028030;28;20234;-68
2022/05/13 12:17:56;;;;;;;8.70;3.33;;;18.60;72.30;;;;;;5029154;28;20056;-68
2022/05/13 12:20:34;;;;;;;8.20;3.55;;;18.50;73.40;;;;;;5028039;28;20045;-68
2022/05/13 12:23:06;;;;;;;;;;;18.50;74.00;;;;;;5027995;28;20049;-68
2022/05/13 12:25:32;;;;;;;10.13;3.45;;;18.30;73.60;;;;;;5028359;28;19928;-68
2022/05/13 12:28:10;;;;;;;8.88;3.42;;;18.20;74.40;;;;;;5028072;28;20053;-68
2022/05/13 12:30:41;;;;;;;8.25;4.10;;;18.20;73.60;;;;;;5022285;28;20061;-68
2022/05/13 12:33:19;;;;;;;13.25;4.00;;;18.20;74.90;;;;;;5027508;28;20057;-67
2022/05/13 12:38:32;;;;;;;6.70;3.50;;;18.60;71.80;;;;;;5031963;28;19931;-67
2022/05/13 12:41:14;;;;;;;4.45;3.17;;;18.50;70.00;;;;;;5049455;28;20064;-68
2022/05/13 12:44:14;;;;;;;8.48;3.10;;;18.40;69.10;;;;;;5030277;28;20052;-67
2022/05/13 12:46:52;;;;;;;12.73;3.00;;;18.50;68.60;;;;;;5047607;28;20048;-68
2022/05/13 12:49:25;;;;;;;12.48;4.10;;;18.40;68.30;;;;;;5015164;28;20041;-68
2022/05/13 12:52:10;;;;;;;9.45;3.92;;;18.40;69.20;;;;;;5032619;28;20410;-68
2022/05/13 12:54:47;;;;;;;14.82;3.67;;;18.50;67.80;;;;;;5048774;28;20056;-68
2022/05/13 12:57:30;;;;;;;5.75;3.17;;;18.60;68.90;;;;;;5046933;28;20061;-68
2022/05/13 12:59:55;;;;;;;6.20;3.10;;;18.80;68.20;;;;;;5027486;28;20457;-68
2022/05/13 13:02:29;;;;;;;11.40;3.65;;;18.80;68.40;;;;;;5049101;28;20126;-68
2022/05/13 13:05:02;;;;;;;4.35;2.83;;;18.80;67.60;;;;;;5043207;28;20049;-68
2022/05/13 13:07:32;;;;;;;10.10;3.28;;;18.80;66.80;;;;;;5031802;28;20053;-68
2022/05/13 13:09:59;;;;;;;9.88;4.00;;;18.80;67.20;;;;;;5030854;28;20140;-68
2022/05/13 13:12:37;;;;;;;7.75;3.83;;;18.80;67.70;;;;;;5031411;28;20098;-68
2022/05/13 13:15:26;;;;;;;12.43;3.63;;;18.80;66.80;;;;;;5049577;28;20052;-69
2022/05/13 13:17:58;;;;;;;11.57;3.28;;;18.80;68.60;;;;;;5048879;28;20128;-69
2022/05/13 13:20:28;;;;;;;12.55;3.50;;;18.90;68.00;;;;;;5046302;28;20099;-69
2022/05/13 13:23:05;;;;;;;6.18;3.03;;;18.90;67.50;;;;;;5025319;28;20462;-69
2022/05/13 13:25:43;;;;;;;7.30;3.38;;;19.00;65.50;;;;;;5043966;28;20044;-68
2022/05/13 13:28:12;;;;;;;13.15;4.05;;;19.10;65.30;;;;;;5027643;28;20456;-68
2022/05/13 13:30:52;;;;;;;4.45;2.53;;;19.20;65.40;;;;;;5029673;28;20049;-68
2022/05/13 13:33:18;;;;;;;12.35;3.58;;;19.10;63.80;;;;;;5025370;28;20056;-68